»·PEaware :: N117AL KHND-KSNA

N117AL :: KHND-KSNA

FLIGHT INFORMATION

Flight Status: Arrived
Operator: Privately registered:
United States
More flights under this callsign
Pilot: Adam W. (20046)
Aircraft: BOMBARDIER BD-100 CHALLENGER 300
(CL30)
More flights by this aircraft type
Origin: KHND Henderson
United States
Destination: KSNA John Wayne-Orange Co
United States
More flights between these airports :: More routes between these airports
Route: +PALLY5 WHIGG FEYLA DSNEE4
File this flight plan on PilotEdge
Remarks:
Altitude:
(Current/Filed)
26,000ft
Speed:
(Current/Filed)
470kts
Departed: 06-Oct-18 09:56 AM
Arrived: 06-Oct-18 10:51 AM
Distance/Time
Traveled:
193nm/0:55
Distance/Time
To Go:
Arrived

Flight Plot

Page will automatically refresh every two minutes.

Flight plan parsing failed; only flown route is shown


Map Options




Map Legend


Flown Route
Filed Route
Departure Airport
Arrival Airport
Navaid (VOR, NDB)
Fix

Horizontal Profiles

Position Reports

Time Latitude Longitude Heading Altitude Ground
Speed
06-Oct-18 09:42 35.976719 -115.137415 0 2452ft 0kts
06-Oct-18 09:43 35.976719 -115.137415 0 2452ft 0kts
06-Oct-18 09:44 35.976719 -115.137415 0 2452ft 0kts
06-Oct-18 09:45 35.976719 -115.137415 0 2452ft 0kts
06-Oct-18 09:46 35.976719 -115.137415 0 2452ft 0kts
06-Oct-18 09:47 35.976719 -115.137415 0 2452ft 0kts
06-Oct-18 09:48 35.976719 -115.137415 0 2452ft 0kts
06-Oct-18 09:49 35.976719 -115.137415 0 2452ft 0kts
06-Oct-18 09:50 35.976719 -115.137415 0 2452ft 0kts
06-Oct-18 09:51 35.976719 -115.137415 0 2452ft 0kts
06-Oct-18 09:52 35.976691 -115.136387 180 2452ft 14kts
06-Oct-18 09:53 35.969918 -115.136476 180 2452ft 24kts
06-Oct-18 09:54 35.963198 -115.136437 131 2452ft 6kts
06-Oct-18 09:55 35.963154 -115.136340 108 2452ft 0kts
06-Oct-18 09:56 35.963154 -115.136340 108 2452ft 0kts
06-Oct-18 09:57 35.963109 -115.135788 91 2452ft 5kts
06-Oct-18 09:58 35.971216 -115.135457 0 2456ft 146kts
06-Oct-18 09:59 36.000392 -115.093195 81 4795ft 208kts
06-Oct-18 10:00 36.005401 -115.020122 106 5959ft 218kts
06-Oct-18 10:01 35.951819 -114.981739 159 7927ft 277kts
06-Oct-18 10:02 35.881827 -114.993580 215 7978ft 273kts
06-Oct-18 10:03 35.819846 -115.048324 218 7985ft 276kts
06-Oct-18 10:04 35.763610 -115.111676 239 8007ft 277kts
06-Oct-18 10:05 35.724515 -115.193777 240 8518ft 260kts
06-Oct-18 10:06 35.684149 -115.279010 229 11566ft 328kts
06-Oct-18 10:07 35.620794 -115.367939 228 14732ft 355kts
06-Oct-18 10:08 35.555852 -115.457664 228 18230ft 352kts
06-Oct-18 10:09 35.487552 -115.551012 228 18897ft 378kts
06-Oct-18 10:10 35.418398 -115.644323 228 20459ft 358kts
06-Oct-18 10:11 35.350823 -115.735124 229 23949ft 371kts
06-Oct-18 10:12 35.279593 -115.830696 230 25911ft 408kts
06-Oct-18 10:13 35.200924 -115.933838 228 25902ft 419kts
06-Oct-18 10:14 35.144436 -116.005259 228 25918ft 419kts
06-Oct-18 10:15 35.144436 -116.005259 228 25918ft 419kts
06-Oct-18 10:16 35.144436 -116.005259 228 25918ft 419kts
06-Oct-18 10:17 35.144436 -116.005259 228 25918ft 419kts
06-Oct-18 10:18 35.144436 -116.005259 228 25918ft 419kts
06-Oct-18 10:19 35.144436 -116.005259 228 25918ft 419kts
06-Oct-18 10:20 35.144436 -116.005259 228 25918ft 419kts
06-Oct-18 10:21 35.144436 -116.005259 228 25918ft 419kts
06-Oct-18 10:22 35.144436 -116.005259 228 25918ft 419kts
06-Oct-18 10:23 35.144436 -116.005259 228 25918ft 419kts
06-Oct-18 10:24 35.144436 -116.005259 228 25918ft 419kts
06-Oct-18 10:25 35.112062 -116.046077 228 25915ft 418kts
06-Oct-18 10:26 35.017605 -116.164818 229 25900ft 416kts
06-Oct-18 10:27 34.937082 -116.265635 230 25916ft 417kts
06-Oct-18 10:28 34.870827 -116.348868 232 25904ft 409kts
06-Oct-18 10:29 34.784328 -116.459039 232 25323ft 379kts
06-Oct-18 10:30 34.724499 -116.535101 232 23615ft 368kts
06-Oct-18 10:31 34.635352 -116.630718 225 21229ft 367kts
06-Oct-18 10:32 34.570743 -116.694407 223 19910ft 358kts
06-Oct-18 10:33 34.493950 -116.770747 228 19775ft 356kts
06-Oct-18 10:34 34.423661 -116.852933 228 17769ft 346kts
06-Oct-18 10:35 34.355486 -116.932077 227 15772ft 336kts
06-Oct-18 10:36 34.288648 -117.009113 227 14019ft 326kts
06-Oct-18 10:37 34.212347 -117.071985 216 12914ft 330kts
06-Oct-18 10:38 34.132009 -117.122051 209 12039ft 328kts
06-Oct-18 10:39 34.047774 -117.168282 209 12055ft 337kts
06-Oct-18 10:40 33.974219 -117.231611 232 11068ft 316kts
06-Oct-18 10:41 33.916676 -117.309515 233 10607ft 290kts
06-Oct-18 10:42 33.868587 -117.376626 233 8572ft 251kts
06-Oct-18 10:43 33.824350 -117.438955 237 8056ft 248kts
06-Oct-18 10:44 33.817161 -117.519489 271 6574ft 242kts
06-Oct-18 10:45 33.822214 -117.597469 301 6031ft 233kts
06-Oct-18 10:46 33.855569 -117.655273 301 5073ft 197kts
06-Oct-18 10:47 33.883195 -117.711237 269 4024ft 193kts
06-Oct-18 10:48 33.846580 -117.760124 207 3078ft 188kts
06-Oct-18 10:49 33.803571 -117.787562 206 2761ft 176kts
06-Oct-18 10:50 33.761211 -117.814573 206 1850ft 173kts
06-Oct-18 10:51 33.724324 -117.837995 206 1008ft 126kts
06-Oct-18 10:52 33.694646 -117.856817 206 381ft 117kts
06-Oct-18 10:53 33.671011 -117.871817 206 63ft 33kts
06-Oct-18 10:54 33.669482 -117.871987 144 63ft 0kts
06-Oct-18 10:55 33.669482 -117.871987 144 63ft 0kts
06-Oct-18 10:56 33.668662 -117.869950 126 63ft 0kts
06-Oct-18 10:57 33.668663 -117.869950 126 63ft 0kts

Navigation Log

Ident Type
Flight plan parsing failed, navigation log unavailable